sensor_id;sensor_type;location;lat;lon;timestamp;pressure;altitude;pressure_sealevel;temperature;humidity
33191;BME280;19554;42.652;23.364;2023-10-19T00:01:14;94683.19;;;9.29;69.00
33191;BME280;19554;42.652;23.364;2023-10-19T00:03:41;94703.41;;;9.30;68.47
33191;BME280;19554;42.652;23.364;2023-10-19T00:06:07;94647.19;;;8.97;68.10
33191;BME280;19554;42.652;23.364;2023-10-19T00:08:32;94672.66;;;9.13;67.83
33191;BME280;19554;42.652;23.364;2023-10-19T00:11:08;94693.91;;;9.23;68.56
33191;BME280;19554;42.652;23.364;2023-10-19T00:13:35;94633.72;;;8.78;68.30
33191;BME280;19554;42.652;23.364;2023-10-19T00:16:01;94607.47;;;8.66;68.77
33191;BME280;19554;42.652;23.364;2023-10-19T00:18:36;94684.09;;;9.14;69.15
33191;BME280;19554;42.652;23.364;2023-10-19T00:21:01;94684.91;;;9.14;69.18
33191;BME280;19554;42.652;23.364;2023-10-19T00:23:55;94683.56;;;9.12;68.89
33191;BME280;19554;42.652;23.364;2023-10-19T00:26:24;94677.44;;;9.16;69.72
33191;BME280;19554;42.652;23.364;2023-10-19T00:28:55;94670.75;;;9.19;69.11
33191;BME280;19554;42.652;23.364;2023-10-19T00:31:26;94677.44;;;9.16;68.90
33191;BME280;19554;42.652;23.364;2023-10-19T00:33:53;94675.28;;;9.18;70.01
33191;BME280;19554;42.652;23.364;2023-10-19T00:36:20;94666.28;;;9.09;69.41
33191;BME280;19554;42.652;23.364;2023-10-19T00:38:46;94643.69;;;9.01;69.43
33191;BME280;19554;42.652;23.364;2023-10-19T00:41:17;94665.16;;;9.15;70.14
33191;BME280;19554;42.652;23.364;2023-10-19T00:43:55;94676.63;;;9.16;69.57
33191;BME280;19554;42.652;23.364;2023-10-19T00:46:37;94662.81;;;9.14;69.38
33191;BME280;19554;42.652;23.364;2023-10-19T00:49:12;94661.78;;;9.10;69.03
33191;BME280;19554;42.652;23.364;2023-10-19T00:51:42;94639.72;;;8.99;69.13
33191;BME280;19554;42.652;23.364;2023-10-19T00:54:41;94644.53;;;8.97;69.43
33191;BME280;19554;42.652;23.364;2023-10-19T00:57:15;94665.72;;;9.12;69.65
33191;BME280;19554;42.652;23.364;2023-10-19T00:59:45;94592.03;;;8.68;69.92
33191;BME280;19554;42.652;23.364;2023-10-19T01:02:25;94660.63;;;9.16;69.87
33191;BME280;19554;42.652;23.364;2023-10-19T01:04:52;94663.03;;;9.17;69.53
33191;BME280;19554;42.652;23.364;2023-10-19T01:07:24;94652.94;;;9.14;70.19
33191;BME280;19554;42.652;23.364;2023-10-19T01:09:49;94657.72;;;9.17;69.97
33191;BME280;19554;42.652;23.364;2023-10-19T01:12:19;94663.59;;;9.14;69.21
33191;BME280;19554;42.652;23.364;2023-10-19T01:15:12;94665.47;;;9.09;68.55
33191;BME280;19554;42.652;23.364;2023-10-19T01:17:59;94620.94;;;8.80;69.27
33191;BME280;19554;42.652;23.364;2023-10-19T01:20:25;94667.94;;;9.00;69.38
33191;BME280;19554;42.652;23.364;2023-10-19T01:23:01;94669.28;;;8.97;69.17
33191;BME280;19554;42.652;23.364;2023-10-19T01:25:48;94670.38;;;8.96;69.02
33191;BME280;19554;42.652;23.364;2023-10-19T01:28:27;94672.22;;;8.96;68.59
33191;BME280;19554;42.652;23.364;2023-10-19T01:31:10;94618.38;;;8.65;68.57
33191;BME280;19554;42.652;23.364;2023-10-19T01:33:41;94661.59;;;8.96;68.94
33191;BME280;19554;42.652;23.364;2023-10-19T01:36:08;94658.41;;;8.94;69.19
33191;BME280;19554;42.652;23.364;2023-10-19T01:38:40;94663.16;;;8.97;68.69
33191;BME280;19554;42.652;23.364;2023-10-19T01:41:08;94560.78;;;8.35;68.69
33191;BME280;19554;42.652;23.364;2023-10-19T01:43:41;94669.53;;;9.01;69.27
33191;BME280;19554;42.652;23.364;2023-10-19T01:46:08;94659.41;;;9.03;68.83
33191;BME280;19554;42.652;23.364;2023-10-19T01:48:46;94660.22;;;8.98;67.84
33191;BME280;19554;42.652;23.364;2023-10-19T01:51:14;94678.84;;;9.04;67.72
33191;BME280;19554;42.652;23.364;2023-10-19T01:53:40;94672.97;;;9.07;67.53
33191;BME280;19554;42.652;23.364;2023-10-19T01:56:14;94645.63;;;8.91;67.87
33191;BME280;19554;42.652;23.364;2023-10-19T01:58:41;94605.59;;;8.67;68.81
33191;BME280;19554;42.652;23.364;2023-10-19T02:01:08;94669.50;;;9.06;68.35
33191;BME280;19554;42.652;23.364;2023-10-19T02:03:40;94666.31;;;9.04;67.76
33191;BME280;19554;42.652;23.364;2023-10-19T02:06:11;94671.09;;;9.02;67.86
33191;BME280;19554;42.652;23.364;2023-10-19T02:08:48;94630.25;;;8.83;68.24
33191;BME280;19554;42.652;23.364;2023-10-19T02:11:24;94663.66;;;9.04;68.94
33191;BME280;19554;42.652;23.364;2023-10-19T02:13:52;94628.63;;;8.87;69.09
33191;BME280;19554;42.652;23.364;2023-10-19T02:16:21;94621.19;;;8.84;69.63
33191;BME280;19554;42.652;23.364;2023-10-19T02:18:58;94657.25;;;9.05;69.88
33191;BME280;19554;42.652;23.364;2023-10-19T02:21:23;94653.03;;;8.99;70.36
33191;BME280;19554;42.652;23.364;2023-10-19T02:23:52;94665.25;;;9.05;70.29
33191;BME280;19554;42.652;23.364;2023-10-19T02:26:21;94599.53;;;8.56;69.37
33191;BME280;19554;42.652;23.364;2023-10-19T02:28:53;94651.00;;;8.86;69.51
33191;BME280;19554;42.652;23.364;2023-10-19T02:31:22;94677.56;;;8.96;69.69
33191;BME280;19554;42.652;23.364;2023-10-19T02:33:52;94672.78;;;8.93;70.10
33191;BME280;19554;42.652;23.364;2023-10-19T02:36:25;94666.09;;;8.95;70.43
33191;BME280;19554;42.652;23.364;2023-10-19T02:38:55;94669.53;;;9.01;71.71
33191;BME280;19554;42.652;23.364;2023-10-19T02:41:24;94662.56;;;9.05;72.33
33191;BME280;19554;42.652;23.364;2023-10-19T02:43:52;94667.63;;;9.07;72.46
33191;BME280;19554;42.652;23.364;2023-10-19T02:46:30;94665.22;;;9.10;72.73
33191;BME280;19554;42.652;23.364;2023-10-19T02:49:02;94624.94;;;8.83;72.13
33191;BME280;19554;42.652;23.364;2023-10-19T02:51:29;94660.94;;;9.09;72.42
33191;BME280;19554;42.652;23.364;2023-10-19T02:53:56;94664.44;;;9.05;71.25
33191;BME280;19554;42.652;23.364;2023-10-19T02:56:22;94669.22;;;9.08;70.00
33191;BME280;19554;42.652;23.364;2023-10-19T02:58:52;94667.34;;;9.08;69.49
33191;BME280;19554;42.652;23.364;2023-10-19T03:01:21;94672.16;;;9.06;69.00
33191;BME280;19554;42.652;23.364;2023-10-19T03:03:54;94670.56;;;9.05;69.22
33191;BME280;19554;42.652;23.364;2023-10-19T03:06:21;94662.06;;;9.03;69.82
33191;BME280;19554;42.652;23.364;2023-10-19T03:08:50;94656.19;;;9.06;71.83
33191;BME280;19554;42.652;23.364;2023-10-19T03:11:23;94650.06;;;9.06;72.67
33191;BME280;19554;42.652;23.364;2023-10-19T03:13:49;94657.72;;;9.12;72.52
33191;BME280;19554;42.652;23.364;2023-10-19T03:16:16;94639.66;;;9.09;72.76
33191;BME280;19554;42.652;23.364;2023-10-19T03:18:42;94627.47;;;8.98;73.07
33191;BME280;19554;42.652;23.364;2023-10-19T03:21:08;94650.00;;;9.16;73.17
33191;BME280;19554;42.652;23.364;2023-10-19T03:23:36;94626.16;;;9.00;73.66
33191;BME280;19554;42.652;23.364;2023-10-19T03:26:03;94637.88;;;8.94;72.44
33191;BME280;19554;42.652;23.364;2023-10-19T03:29:04;94630.81;;;8.80;72.63
33191;BME280;19554;42.652;23.364;2023-10-19T03:31:39;94629.97;;;8.84;73.06
33191;BME280;19554;42.652;23.364;2023-10-19T03:34:12;94615.38;;;8.76;72.75
33191;BME280;19554;42.652;23.364;2023-10-19T03:36:38;94629.72;;;8.86;71.50
33191;BME280;19554;42.652;23.364;2023-10-19T03:39:04;94651.97;;;9.00;70.84
33191;BME280;19554;42.652;23.364;2023-10-19T03:41:43;94644.78;;;9.00;71.07
33191;BME280;19554;42.652;23.364;2023-10-19T03:44:13;94647.69;;;9.04;70.99
33191;BME280;19554;42.652;23.364;2023-10-19T03:46:49;94637.59;;;9.01;71.54
33191;BME280;19554;42.652;23.364;2023-10-19T03:49:29;94644.72;;;9.06;70.40
33191;BME280;19554;42.652;23.364;2023-10-19T03:52:04;94642.91;;;9.01;69.59
33191;BME280;19554;42.652;23.364;2023-10-19T03:54:36;94638.19;;;8.93;68.89
33191;BME280;19554;42.652;23.364;2023-10-19T03:57:08;94548.06;;;8.26;68.06
33191;BME280;19554;42.652;23.364;2023-10-19T03:59:40;94627.59;;;8.77;67.79
33191;BME280;19554;42.652;23.364;2023-10-19T04:02:09;94641.44;;;8.80;67.73
33191;BME280;19554;42.652;23.364;2023-10-19T04:04:38;94639.56;;;8.80;69.02
33191;BME280;19554;42.652;23.364;2023-10-19T04:07:04;94569.81;;;8.34;70.38
33191;BME280;19554;42.652;23.364;2023-10-19T04:09:36;94626.03;;;8.71;71.72
33191;BME280;19554;42.652;23.364;2023-10-19T04:12:22;94637.16;;;8.84;72.72
33191;BME280;19554;42.652;23.364;2023-10-19T04:14:47;94622.28;;;8.77;72.69
33191;BME280;19554;42.652;23.364;2023-10-19T04:17:13;94628.09;;;8.85;72.55
33191;BME280;19554;42.652;23.364;2023-10-19T04:19:38;94644.09;;;8.80;71.04
33191;BME280;19554;42.652;23.364;2023-10-19T04:22:04;94634.56;;;8.73;69.71
33191;BME280;19554;42.652;23.364;2023-10-19T04:24:30;94643.09;;;8.70;69.15
33191;BME280;19554;42.652;23.364;2023-10-19T04:26:58;94565.91;;;8.21;68.88
33191;BME280;19554;42.652;23.364;2023-10-19T04:29:24;94639.66;;;8.65;69.34
33191;BME280;19554;42.652;23.364;2023-10-19T04:31:53;94568.59;;;8.16;69.75
33191;BME280;19554;42.652;23.364;2023-10-19T04:34:22;94637.31;;;8.58;70.01
33191;BME280;19554;42.652;23.364;2023-10-19T04:36:48;94620.88;;;8.46;70.28
33191;BME280;19554;42.652;23.364;2023-10-19T04:39:14;94631.22;;;8.52;70.76
33191;BME280;19554;42.652;23.364;2023-10-19T04:41:40;94622.44;;;8.47;71.38
33191;BME280;19554;42.652;23.364;2023-10-19T04:44:06;94629.88;;;8.55;72.04
33191;BME280;19554;42.652;23.364;2023-10-19T04:46:34;94600.16;;;8.32;70.45
33191;BME280;19554;42.652;23.364;2023-10-19T04:49:00;94613.16;;;8.44;70.40
33191;BME280;19554;42.652;23.364;2023-10-19T04:51:25;94622.44;;;8.52;70.93
33191;BME280;19554;42.652;23.364;2023-10-19T04:53:51;94624.06;;;8.48;69.39
33191;BME280;19554;42.652;23.364;2023-10-19T04:56:16;94593.78;;;8.28;68.89
33191;BME280;19554;42.652;23.364;2023-10-19T04:58:42;94620.88;;;8.46;68.99
33191;BME280;19554;42.652;23.364;2023-10-19T05:01:07;94561.44;;;8.11;68.95
33191;BME280;19554;42.652;23.364;2023-10-19T05:03:33;94630.16;;;8.48;67.69
33191;BME280;19554;42.652;23.364;2023-10-19T05:05:59;94615.50;;;8.51;67.84
33191;BME280;19554;42.652;23.364;2023-10-19T05:08:26;94616.03;;;8.53;67.85
33191;BME280;19554;42.652;23.364;2023-10-19T05:10:53;94625.34;;;8.56;68.13
33191;BME280;19554;42.652;23.364;2023-10-19T05:13:25;94629.88;;;8.55;67.65
33191;BME280;19554;42.652;23.364;2023-10-19T05:15:51;94609.13;;;8.52;67.60
33191;BME280;19554;42.652;23.364;2023-10-19T05:18:18;94559.19;;;8.34;68.34
33191;BME280;19554;42.652;23.364;2023-10-19T05:20:45;94624.38;;;8.86;67.26
33191;BME280;19554;42.652;23.364;2023-10-19T05:23:11;94622.72;;;8.95;66.40
33191;BME280;19554;42.652;23.364;2023-10-19T05:25:38;94631.09;;;9.17;66.50
33191;BME280;19554;42.652;23.364;2023-10-19T05:28:07;94632.75;;;9.42;67.45
33191;BME280;19554;42.652;23.364;2023-10-19T05:30:35;94630.69;;;9.63;65.36
33191;BME280;19554;42.652;23.364;2023-10-19T05:33:01;94617.06;;;9.94;64.93
33191;BME280;19554;42.652;23.364;2023-10-19T05:35:31;94617.38;;;10.16;64.85
33191;BME280;19554;42.652;23.364;2023-10-19T05:38:00;94598.13;;;10.19;64.18
33191;BME280;19554;42.652;23.364;2023-10-19T05:40:26;94631.84;;;10.58;63.77
33191;BME280;19554;42.652;23.364;2023-10-19T05:42:58;94626.56;;;10.53;63.26
33191;BME280;19554;42.652;23.364;2023-10-19T05:45:25;94636.03;;;10.64;63.64
33191;BME280;19554;42.652;23.364;2023-10-19T05:47:52;94608.38;;;10.55;63.81
33191;BME280;19554;42.652;23.364;2023-10-19T05:50:17;94605.44;;;10.76;63.86
33191;BME280;19554;42.652;23.364;2023-10-19T05:52:43;94639.88;;;10.96;63.40
33191;BME280;19554;42.652;23.364;2023-10-19T05:55:09;94639.72;;;10.68;64.75
33191;BME280;19554;42.652;23.364;2023-10-19T05:57:37;94641.25;;;10.75;64.72
33191;BME280;19554;42.652;23.364;2023-10-19T06:00:07;94646.41;;;10.47;65.46
33191;BME280;19554;42.652;23.364;2023-10-19T06:02:32;94640.38;;;10.60;65.87
33191;BME280;19554;42.652;23.364;2023-10-19T06:05:00;94627.88;;;10.32;66.36
33191;BME280;19554;42.652;23.364;2023-10-19T06:07:25;94638.56;;;10.32;67.37
33191;BME280;19554;42.652;23.364;2023-10-19T06:09:51;94644.00;;;10.46;67.29
33191;BME280;19554;42.652;23.364;2023-10-19T06:12:16;94651.16;;;10.50;67.04
33191;BME280;19554;42.652;23.364;2023-10-19T06:14:41;94646.06;;;10.25;68.32
33191;BME280;19554;42.652;23.364;2023-10-19T06:17:07;94599.16;;;10.00;67.97
33191;BME280;19554;42.652;23.364;2023-10-19T06:19:32;94642.94;;;10.47;67.60
33191;BME280;19554;42.652;23.364;2023-10-19T06:21:58;94632.47;;;10.50;67.80
33191;BME280;19554;42.652;23.364;2023-10-19T06:24:25;94637.53;;;10.52;68.04
33191;BME280;19554;42.652;23.364;2023-10-19T06:26:50;94646.13;;;10.67;67.78
33191;BME280;19554;42.652;23.364;2023-10-19T06:29:17;94635.59;;;10.57;68.06
33191;BME280;19554;42.652;23.364;2023-10-19T06:31:43;94639.91;;;10.53;68.31
33191;BME280;19554;42.652;23.364;2023-10-19T06:34:08;94647.53;;;10.41;68.91
33191;BME280;19554;42.652;23.364;2023-10-19T06:36:35;94632.66;;;10.35;68.86
33191;BME280;19554;42.652;23.364;2023-10-19T06:39:01;94639.13;;;10.29;69.41
33191;BME280;19554;42.652;23.364;2023-10-19T06:41:31;94630.63;;;10.27;69.43
33191;BME280;19554;42.652;23.364;2023-10-19T06:43:57;94630.56;;;10.32;70.54
33191;BME280;19554;42.652;23.364;2023-10-19T06:46:23;94641.06;;;10.47;69.75
33191;BME280;19554;42.652;23.364;2023-10-19T06:48:49;94638.25;;;10.57;69.04
33191;BME280;19554;42.652;23.364;2023-10-19T06:51:16;94629.69;;;10.60;68.85
33191;BME280;19554;42.652;23.364;2023-10-19T06:53:41;94647.50;;;10.65;68.78
33191;BME280;19554;42.652;23.364;2023-10-19T06:56:07;94641.94;;;10.61;69.17
33191;BME280;19554;42.652;23.364;2023-10-19T06:58:33;94587.88;;;10.32;68.69
33191;BME280;19554;42.652;23.364;2023-10-19T07:00:59;94632.72;;;10.73;68.60
33191;BME280;19554;42.652;23.364;2023-10-19T07:03:33;94603.91;;;10.70;67.68
33191;BME280;19554;42.652;23.364;2023-10-19T07:05:58;94615.13;;;10.72;68.19
33191;BME280;19554;42.652;23.364;2023-10-19T07:08:25;94605.72;;;10.55;69.37
33191;BME280;19554;42.652;23.364;2023-10-19T07:10:52;94602.34;;;10.68;68.67
33191;BME280;19554;42.652;23.364;2023-10-19T07:13:19;94623.84;;;10.96;68.15
33191;BME280;19554;42.652;23.364;2023-10-19T07:15:46;94624.22;;;11.08;67.75
33191;BME280;19554;42.652;23.364;2023-10-19T07:18:12;94627.66;;;11.28;67.33
33191;BME280;19554;42.652;23.364;2023-10-19T07:20:39;94630.94;;;11.25;67.90
33191;BME280;19554;42.652;23.364;2023-10-19T07:23:05;94633.19;;;11.31;67.28
33191;BME280;19554;42.652;23.364;2023-10-19T07:25:56;94613.97;;;11.15;67.24
33191;BME280;19554;42.652;23.364;2023-10-19T07:28:25;94629.56;;;11.08;67.74
33191;BME280;19554;42.652;23.364;2023-10-19T07:30:54;94628.41;;;11.14;67.62
33191;BME280;19554;42.652;23.364;2023-10-19T07:33:19;94630.00;;;11.15;67.43
33191;BME280;19554;42.652;23.364;2023-10-19T07:35:49;94612.97;;;11.11;66.99
33191;BME280;19554;42.652;23.364;2023-10-19T07:38:25;94632.84;;;11.38;66.23
33191;BME280;19554;42.652;23.364;2023-10-19T07:40:53;94625.75;;;11.47;66.49
33191;BME280;19554;42.652;23.364;2023-10-19T07:43:19;94604.94;;;11.44;65.79
33191;BME280;19554;42.652;23.364;2023-10-19T07:45:46;94634.63;;;11.75;65.25
33191;BME280;19554;42.652;23.364;2023-10-19T07:48:13;94630.19;;;11.71;65.12
33191;BME280;19554;42.652;23.364;2023-10-19T07:50:40;94648.59;;;11.72;64.93
33191;BME280;19554;42.652;23.364;2023-10-19T07:53:08;94603.44;;;11.38;65.12
33191;BME280;19554;42.652;23.364;2023-10-19T07:55:37;94628.97;;;11.63;65.46
33191;BME280;19554;42.652;23.364;2023-10-19T07:58:04;94621.41;;;11.51;66.35
33191;BME280;19554;42.652;23.364;2023-10-19T08:00:30;94571.31;;;11.57;65.63
33191;BME280;19554;42.652;23.364;2023-10-19T08:02:55;94621.75;;;12.38;64.42
33191;BME280;19554;42.652;23.364;2023-10-19T08:05:21;94620.13;;;12.78;63.39
33191;BME280;19554;42.652;23.364;2023-10-19T08:07:47;94634.53;;;13.04;62.29
33191;BME280;19554;42.652;23.364;2023-10-19T08:10:17;94631.22;;;13.21;61.17
33191;BME280;19554;42.652;23.364;2023-10-19T08:12:43;94633.50;;;13.28;60.60
33191;BME280;19554;42.652;23.364;2023-10-19T08:15:11;94632.13;;;13.31;60.23
33191;BME280;19554;42.652;23.364;2023-10-19T08:17:37;94622.19;;;13.31;60.20
33191;BME280;19554;42.652;23.364;2023-10-19T08:20:07;94628.19;;;13.50;60.09
33191;BME280;19554;42.652;23.364;2023-10-19T08:22:41;94623.63;;;13.60;58.92
33191;BME280;19554;42.652;23.364;2023-10-19T08:25:07;94621.94;;;13.64;58.80
33191;BME280;19554;42.652;23.364;2023-10-19T08:27:43;94615.13;;;13.35;59.46
33191;BME280;19554;42.652;23.364;2023-10-19T08:30:20;94620.50;;;13.58;59.20
33191;BME280;19554;42.652;23.364;2023-10-19T08:32:46;94578.78;;;13.07;59.35
33191;BME280;19554;42.652;23.364;2023-10-19T08:35:15;94630.22;;;13.54;59.10
33191;BME280;19554;42.652;23.364;2023-10-19T08:37:43;94627.59;;;13.62;59.07
33191;BME280;19554;42.652;23.364;2023-10-19T08:40:11;94621.28;;;13.58;58.84
33191;BME280;19554;42.652;23.364;2023-10-19T08:42:43;94625.69;;;13.85;58.84
33191;BME280;19554;42.652;23.364;2023-10-19T08:45:10;94627.97;;;14.01;57.39
33191;BME280;19554;42.652;23.364;2023-10-19T08:47:44;94632.38;;;13.96;57.35
33191;BME280;19554;42.652;23.364;2023-10-19T08:50:14;94610.31;;;13.99;57.30
33191;BME280;19554;42.652;23.364;2023-10-19T08:52:46;94603.19;;;13.95;57.10
33191;BME280;19554;42.652;23.364;2023-10-19T08:55:12;94622.34;;;14.11;56.93
33191;BME280;19554;42.652;23.364;2023-10-19T08:57:39;94622.63;;;14.01;57.57
33191;BME280;19554;42.652;23.364;2023-10-19T09:00:05;94627.97;;;14.01;57.96
33191;BME280;19554;42.652;23.364;2023-10-19T09:02:32;94632.66;;;13.86;58.53
33191;BME280;19554;42.652;23.364;2023-10-19T09:04:58;94564.13;;;13.80;57.21
33191;BME280;19554;42.652;23.364;2023-10-19T09:07:25;94630.97;;;14.39;56.73
33191;BME280;19554;42.652;23.364;2023-10-19T09:09:55;94620.56;;;14.37;56.36
33191;BME280;19554;42.652;23.364;2023-10-19T09:12:21;94609.47;;;14.30;57.29
33191;BME280;19554;42.652;23.364;2023-10-19T09:14:46;94608.59;;;14.43;57.12
33191;BME280;19554;42.652;23.364;2023-10-19T09:17:12;94611.50;;;14.73;55.73
33191;BME280;19554;42.652;23.364;2023-10-19T09:19:40;94599.53;;;14.97;54.82
33191;BME280;19554;42.652;23.364;2023-10-19T09:22:07;94568.09;;;14.88;53.86
33191;BME280;19554;42.652;23.364;2023-10-19T09:24:37;94602.72;;;14.99;54.20
33191;BME280;19554;42.652;23.364;2023-10-19T09:27:05;94599.84;;;14.86;54.41
33191;BME280;19554;42.652;23.364;2023-10-19T09:29:30;94576.78;;;14.85;54.71
33191;BME280;19554;42.652;23.364;2023-10-19T09:32:00;94498.22;;;14.54;54.42
33191;BME280;19554;42.652;23.364;2023-10-19T09:34:30;94581.38;;;15.20;54.14
33191;BME280;19554;42.652;23.364;2023-10-19T09:37:00;94569.97;;;14.97;54.82
33191;BME280;19554;42.652;23.364;2023-10-19T09:39:32;94561.13;;;14.87;55.29
33191;BME280;19554;42.652;23.364;2023-10-19T09:42:10;94546.44;;;15.02;54.94
33191;BME280;19554;42.652;23.364;2023-10-19T09:44:42;94561.91;;;15.14;55.08
33191;BME280;19554;42.652;23.364;2023-10-19T09:47:14;94551.47;;;15.21;55.08
33191;BME280;19554;42.652;23.364;2023-10-19T09:49:41;94544.19;;;15.30;54.83
33191;BME280;19554;42.652;23.364;2023-10-19T09:52:09;94558.28;;;15.36;54.60
33191;BME280;19554;42.652;23.364;2023-10-19T09:54:48;94544.16;;;15.48;54.14
33191;BME280;19554;42.652;23.364;2023-10-19T09:57:34;94536.88;;;15.57;54.42
33191;BME280;19554;42.652;23.364;2023-10-19T10:00:04;94517.69;;;15.58;53.74
33191;BME280;19554;42.652;23.364;2023-10-19T10:02:53;94515.97;;;15.62;53.69
33191;BME280;19554;42.652;23.364;2023-10-19T10:10:42;94534.03;;;15.45;54.76
33191;BME280;19554;42.652;23.364;2023-10-19T10:15:56;94530.06;;;15.59;54.64
33191;BME280;19554;42.652;23.364;2023-10-19T10:18:26;94524.84;;;15.63;54.44
33191;BME280;19554;42.652;23.364;2023-10-19T10:21:07;94520.41;;;15.67;54.00
33191;BME280;19554;42.652;23.364;2023-10-19T10:23:43;94520.06;;;15.77;54.00
33191;BME280;19554;42.652;23.364;2023-10-19T10:26:12;94502.69;;;15.66;54.03
33191;BME280;19554;42.652;23.364;2023-10-19T10:28:39;94508.53;;;15.68;54.09
33191;BME280;19554;42.652;23.364;2023-10-19T10:31:19;94501.72;;;15.62;54.33
33191;BME280;19554;42.652;23.364;2023-10-19T10:33:50;94494.41;;;15.80;54.07
33191;BME280;19554;42.652;23.364;2023-10-19T10:36:17;94510.16;;;15.99;54.10
33191;BME280;19554;42.652;23.364;2023-10-19T10:38:43;94497.16;;;16.01;53.98
33191;BME280;19554;42.652;23.364;2023-10-19T10:41:09;94471.03;;;16.01;54.09
33191;BME280;19554;42.652;23.364;2023-10-19T10:43:57;94472.97;;;16.22;53.88
33191;BME280;19554;42.652;23.364;2023-10-19T10:46:24;94461.22;;;16.26;53.60
33191;BME280;19554;42.652;23.364;2023-10-19T10:48:51;94459.25;;;16.35;53.50
33191;BME280;19554;42.652;23.364;2023-10-19T10:51:28;94450.44;;;16.26;52.92
33191;BME280;19554;42.652;23.364;2023-10-19T10:53:57;94449.38;;;16.19;53.35
33191;BME280;19554;42.652;23.364;2023-10-19T10:56:23;94454.09;;;16.01;54.30
33191;BME280;19554;42.652;23.364;2023-10-19T10:58:50;94424.72;;;15.87;54.24
33191;BME280;19554;42.652;23.364;2023-10-19T11:01:27;94449.34;;;15.98;54.65
33191;BME280;19554;42.652;23.364;2023-10-19T11:04:05;94413.75;;;15.92;54.12
33191;BME280;19554;42.652;23.364;2023-10-19T11:06:31;94436.28;;;16.17;53.95
33191;BME280;19554;42.652;23.364;2023-10-19T11:08:56;94414.44;;;16.10;54.01
33191;BME280;19554;42.652;23.364;2023-10-19T11:11:22;94379.16;;;16.03;53.93
33191;BME280;19554;42.652;23.364;2023-10-19T11:13:47;94384.81;;;16.10;53.83
33191;BME280;19554;42.652;23.364;2023-10-19T11:16:22;94405.56;;;16.30;54.18
33191;BME280;19554;42.652;23.364;2023-10-19T11:18:48;94374.78;;;16.19;53.91
33191;BME280;19554;42.652;23.364;2023-10-19T11:21:15;94402.22;;;16.33;53.98
33191;BME280;19554;42.652;23.364;2023-10-19T11:23:46;94400.25;;;16.43;53.68
33191;BME280;19554;42.652;23.364;2023-10-19T11:26:13;94396.69;;;16.51;53.97
33191;BME280;19554;42.652;23.364;2023-10-19T11:28:40;94395.06;;;16.58;53.96
33191;BME280;19554;42.652;23.364;2023-10-19T11:31:16;94396.66;;;16.59;53.97
33191;BME280;19554;42.652;23.364;2023-10-19T11:33:43;94387.97;;;16.54;54.17
33191;BME280;19554;42.652;23.364;2023-10-19T11:36:09;94377.25;;;16.66;53.54
33191;BME280;19554;42.652;23.364;2023-10-19T11:38:38;94380.13;;;16.61;53.62
33191;BME280;19554;42.652;23.364;2023-10-19T11:41:04;94363.06;;;16.57;53.50
33191;BME280;19554;42.652;23.364;2023-10-19T11:43:29;94368.78;;;16.76;53.23
33191;BME280;19554;42.652;23.364;2023-10-19T11:45:55;94371.38;;;16.85;53.36
33191;BME280;19554;42.652;23.364;2023-10-19T11:48:22;94368.69;;;16.85;52.84
33191;BME280;19554;42.652;23.364;2023-10-19T11:50:47;94369.38;;;16.82;52.85
33191;BME280;19554;42.652;23.364;2023-10-19T11:53:12;94356.69;;;16.83;52.86
33191;BME280;19554;42.652;23.364;2023-10-19T11:55:38;94365.41;;;16.79;53.08
33191;BME280;19554;42.652;23.364;2023-10-19T11:58:07;94359.28;;;16.70;53.64
33191;BME280;19554;42.652;23.364;2023-10-19T12:00:36;94351.47;;;16.77;53.50
33191;BME280;19554;42.652;23.364;2023-10-19T12:03:03;94344.66;;;16.80;53.01
33191;BME280;19554;42.652;23.364;2023-10-19T12:05:29;94308.09;;;16.70;53.09
33191;BME280;19554;42.652;23.364;2023-10-19T12:07:55;94331.75;;;16.86;53.26
33191;BME280;19554;42.652;23.364;2023-10-19T12:10:21;94358.53;;;17.03;53.03
33191;BME280;19554;42.652;23.364;2023-10-19T12:12:57;94339.16;;;16.89;52.81
33191;BME280;19554;42.652;23.364;2023-10-19T12:15:23;94340.75;;;17.02;52.84
33191;BME280;19554;42.652;23.364;2023-10-19T12:17:48;94339.31;;;17.04;52.98
33191;BME280;19554;42.652;23.364;2023-10-19T12:20:16;94300.47;;;16.72;53.22
33191;BME280;19554;42.652;23.364;2023-10-19T12:22:41;94341.69;;;17.06;52.90
33191;BME280;19554;42.652;23.364;2023-10-19T12:25:07;94334.91;;;17.12;53.06
33191;BME280;19554;42.652;23.364;2023-10-19T12:27:33;94338.53;;;17.16;52.90
33191;BME280;19554;42.652;23.364;2023-10-19T12:29:59;94326.63;;;17.17;52.90
33191;BME280;19554;42.652;23.364;2023-10-19T12:32:25;94321.47;;;17.24;52.51
33191;BME280;19554;42.652;23.364;2023-10-19T12:34:51;94326.63;;;17.42;52.40
33191;BME280;19554;42.652;23.364;2023-10-19T12:37:23;94319.88;;;17.36;51.85
33191;BME280;19554;42.652;23.364;2023-10-19T12:39:49;94321.91;;;17.39;52.09
33191;BME280;19554;42.652;23.364;2023-10-19T12:42:15;94272.25;;;17.03;51.71
33191;BME280;19554;42.652;23.364;2023-10-19T12:44:41;94319.44;;;17.34;51.91
33191;BME280;19554;42.652;23.364;2023-10-19T12:47:09;94299.88;;;17.24;51.93
33191;BME280;19554;42.652;23.364;2023-10-19T12:49:37;94288.88;;;17.17;52.18
33191;BME280;19554;42.652;23.364;2023-10-19T12:52:03;94316.75;;;17.46;52.02
33191;BME280;19554;42.652;23.364;2023-10-19T12:54:29;94276.75;;;17.23;51.64
33191;BME280;19554;42.652;23.364;2023-10-19T12:56:55;94310.66;;;17.49;51.43
33191;BME280;19554;42.652;23.364;2023-10-19T12:59:20;94309.09;;;17.48;51.39
33191;BME280;19554;42.652;23.364;2023-10-19T13:01:45;94308.31;;;17.47;51.44
33191;BME280;19554;42.652;23.364;2023-10-19T13:04:14;94295.25;;;17.49;51.29
33191;BME280;19554;42.652;23.364;2023-10-19T13:06:43;94304.72;;;17.56;51.65
33191;BME280;19554;42.652;23.364;2023-10-19T13:09:09;94294.69;;;17.56;51.57
33191;BME280;19554;42.652;23.364;2023-10-19T13:11:35;94301.34;;;17.71;51.17
33191;BME280;19554;42.652;23.364;2023-10-19T13:14:00;94247.63;;;17.41;50.70